sensor_id;sensor_type;location;lat;lon;timestamp;P1;durP1;ratioP1;P2;durP2;ratioP2
15633;SDS011;14654;48.898;8.308;2022-09-25T00:00:50;11.23;;;10.33;;
15633;SDS011;14654;48.898;8.308;2022-09-25T00:03:18;12.03;;;11.03;;
15633;SDS011;14654;48.898;8.308;2022-09-25T00:05:45;12.10;;;11.10;;
15633;SDS011;14654;48.898;8.308;2022-09-25T00:08:12;11.80;;;10.90;;
15633;SDS011;14654;48.898;8.308;2022-09-25T00:10:42;11.97;;;10.93;;
15633;SDS011;14654;48.898;8.308;2022-09-25T00:13:09;11.77;;;10.83;;
15633;SDS011;14654;48.898;8.308;2022-09-25T00:15:35;12.07;;;11.07;;
15633;SDS011;14654;48.898;8.308;2022-09-25T00:18:01;12.23;;;11.30;;
15633;SDS011;14654;48.898;8.308;2022-09-25T00:20:26;12.50;;;11.50;;
15633;SDS011;14654;48.898;8.308;2022-09-25T00:22:51;12.27;;;11.27;;
15633;SDS011;14654;48.898;8.308;2022-09-25T00:25:17;12.07;;;11.07;;
15633;SDS011;14654;48.898;8.308;2022-09-25T00:27:44;12.80;;;11.77;;
15633;SDS011;14654;48.898;8.308;2022-09-25T00:30:10;12.03;;;11.03;;
15633;SDS011;14654;48.898;8.308;2022-09-25T00:32:38;13.10;;;12.00;;
15633;SDS011;14654;48.898;8.308;2022-09-25T00:35:04;13.23;;;12.10;;
15633;SDS011;14654;48.898;8.308;2022-09-25T00:37:34;13.00;;;11.97;;
15633;SDS011;14654;48.898;8.308;2022-09-25T00:40:00;13.20;;;12.07;;
15633;SDS011;14654;48.898;8.308;2022-09-25T00:42:25;12.57;;;11.57;;
15633;SDS011;14654;48.898;8.308;2022-09-25T00:44:53;12.57;;;11.57;;
15633;SDS011;14654;48.898;8.308;2022-09-25T00:52:58;12.87;;;11.87;;
15633;SDS011;14654;48.898;8.308;2022-09-25T00:55:44;12.80;;;11.80;;
15633;SDS011;14654;48.898;8.308;2022-09-25T00:58:10;13.20;;;12.13;;
15633;SDS011;14654;48.898;8.308;2022-09-25T01:00:38;13.30;;;12.20;;
15633;SDS011;14654;48.898;8.308;2022-09-25T01:03:05;13.13;;;12.03;;
15633;SDS011;14654;48.898;8.308;2022-09-25T01:05:32;13.73;;;12.57;;
15633;SDS011;14654;48.898;8.308;2022-09-25T01:08:00;14.63;;;13.53;;
15633;SDS011;14654;48.898;8.308;2022-09-25T01:10:27;15.13;;;13.90;;
15633;SDS011;14654;48.898;8.308;2022-09-25T01:12:53;16.20;;;14.90;;
15633;SDS011;14654;48.898;8.308;2022-09-25T01:15:22;15.90;;;14.60;;
15633;SDS011;14654;48.898;8.308;2022-09-25T01:23:16;14.63;;;13.43;;
15633;SDS011;14654;48.898;8.308;2022-09-25T01:31:18;15.53;;;14.23;;
15633;SDS011;14654;48.898;8.308;2022-09-25T01:34:10;14.03;;;12.87;;
15633;SDS011;14654;48.898;8.308;2022-09-25T01:36:50;14.30;;;13.10;;
15633;SDS011;14654;48.898;8.308;2022-09-25T01:39:24;14.43;;;13.27;;
15633;SDS011;14654;48.898;8.308;2022-09-25T01:42:08;13.67;;;12.57;;
15633;SDS011;14654;48.898;8.308;2022-09-25T01:45:00;14.93;;;13.63;;
15633;SDS011;14654;48.898;8.308;2022-09-25T01:47:30;14.57;;;13.37;;
15633;SDS011;14654;48.898;8.308;2022-09-25T01:50:03;15.40;;;14.10;;
15633;SDS011;14654;48.898;8.308;2022-09-25T01:52:42;15.53;;;14.33;;
15633;SDS011;14654;48.898;8.308;2022-09-25T01:57:41;14.90;;;13.73;;
15633;SDS011;14654;48.898;8.308;2022-09-25T02:00:14;15.80;;;14.50;;
15633;SDS011;14654;48.898;8.308;2022-09-25T02:02:54;15.47;;;14.20;;
15633;SDS011;14654;48.898;8.308;2022-09-25T02:05:25;15.60;;;14.30;;
15633;SDS011;14654;48.898;8.308;2022-09-25T02:07:59;15.80;;;14.50;;
15633;SDS011;14654;48.898;8.308;2022-09-25T02:11:02;14.40;;;13.20;;
15633;SDS011;14654;48.898;8.308;2022-09-25T02:13:26;13.50;;;12.37;;
15633;SDS011;14654;48.898;8.308;2022-09-25T02:15:59;13.37;;;12.27;;
15633;SDS011;14654;48.898;8.308;2022-09-25T02:18:29;13.50;;;12.40;;
15633;SDS011;14654;48.898;8.308;2022-09-25T02:26:49;14.10;;;12.90;;
15633;SDS011;14654;48.898;8.308;2022-09-25T02:29:15;14.10;;;13.00;;
15633;SDS011;14654;48.898;8.308;2022-09-25T02:31:58;13.40;;;12.27;;
15633;SDS011;14654;48.898;8.308;2022-09-25T02:34:28;13.40;;;12.30;;
15633;SDS011;14654;48.898;8.308;2022-09-25T02:36:53;14.30;;;13.10;;
15633;SDS011;14654;48.898;8.308;2022-09-25T02:39:21;13.10;;;12.10;;
15633;SDS011;14654;48.898;8.308;2022-09-25T02:41:54;12.40;;;11.40;;
15633;SDS011;14654;48.898;8.308;2022-09-25T02:56:01;9.67;;;8.87;;
15633;SDS011;14654;48.898;8.308;2022-09-25T03:01:04;9.50;;;8.80;;
15633;SDS011;14654;48.898;8.308;2022-09-25T03:03:32;9.43;;;8.73;;
15633;SDS011;14654;48.898;8.308;2022-09-25T03:05:59;8.87;;;8.20;;
15633;SDS011;14654;48.898;8.308;2022-09-25T03:08:26;9.37;;;8.67;;
15633;SDS011;14654;48.898;8.308;2022-09-25T03:11:05;8.73;;;8.03;;
15633;SDS011;14654;48.898;8.308;2022-09-25T03:13:37;8.57;;;7.93;;
15633;SDS011;14654;48.898;8.308;2022-09-25T03:16:09;9.03;;;8.33;;
15633;SDS011;14654;48.898;8.308;2022-09-25T03:18:34;8.53;;;7.83;;
15633;SDS011;14654;48.898;8.308;2022-09-25T03:21:02;8.63;;;7.93;;
15633;SDS011;14654;48.898;8.308;2022-09-25T03:23:28;8.20;;;7.60;;
15633;SDS011;14654;48.898;8.308;2022-09-25T03:25:54;8.63;;;7.93;;
15633;SDS011;14654;48.898;8.308;2022-09-25T03:28:20;7.77;;;7.17;;
15633;SDS011;14654;48.898;8.308;2022-09-25T03:30:56;8.60;;;7.90;;
15633;SDS011;14654;48.898;8.308;2022-09-25T03:33:22;7.80;;;7.20;;
15633;SDS011;14654;48.898;8.308;2022-09-25T03:35:47;7.20;;;6.60;;
15633;SDS011;14654;48.898;8.308;2022-09-25T03:38:13;8.00;;;7.30;;
15633;SDS011;14654;48.898;8.308;2022-09-25T03:40:38;8.13;;;7.53;;
15633;SDS011;14654;48.898;8.308;2022-09-25T03:43:03;8.03;;;7.43;;
15633;SDS011;14654;48.898;8.308;2022-09-25T03:45:29;7.20;;;6.70;;
15633;SDS011;14654;48.898;8.308;2022-09-25T03:47:55;7.63;;;7.03;;
15633;SDS011;14654;48.898;8.308;2022-09-25T03:50:20;7.83;;;7.23;;
15633;SDS011;14654;48.898;8.308;2022-09-25T03:52:45;6.97;;;6.37;;
15633;SDS011;14654;48.898;8.308;2022-09-25T03:55:11;6.93;;;6.43;;
15633;SDS011;14654;48.898;8.308;2022-09-25T03:57:36;6.77;;;6.27;;
15633;SDS011;14654;48.898;8.308;2022-09-25T04:00:03;7.87;;;6.63;;
15633;SDS011;14654;48.898;8.308;2022-09-25T04:02:30;7.33;;;6.73;;
15633;SDS011;14654;48.898;8.308;2022-09-25T04:04:55;6.87;;;6.37;;
15633;SDS011;14654;48.898;8.308;2022-09-25T04:07:21;6.53;;;6.03;;
15633;SDS011;14654;48.898;8.308;2022-09-25T04:09:47;6.07;;;5.67;;
15633;SDS011;14654;48.898;8.308;2022-09-25T04:12:12;6.77;;;6.27;;
15633;SDS011;14654;48.898;8.308;2022-09-25T04:14:38;7.83;;;7.23;;
15633;SDS011;14654;48.898;8.308;2022-09-25T04:17:05;7.30;;;6.70;;
15633;SDS011;14654;48.898;8.308;2022-09-25T04:19:31;8.30;;;7.50;;
15633;SDS011;14654;48.898;8.308;2022-09-25T04:21:56;8.20;;;7.60;;
15633;SDS011;14654;48.898;8.308;2022-09-25T04:24:21;6.93;;;6.43;;
15633;SDS011;14654;48.898;8.308;2022-09-25T04:27:05;7.40;;;6.87;;
15633;SDS011;14654;48.898;8.308;2022-09-25T04:29:32;6.80;;;6.30;;
15633;SDS011;14654;48.898;8.308;2022-09-25T04:31:58;8.40;;;7.70;;
15633;SDS011;14654;48.898;8.308;2022-09-25T04:34:42;6.97;;;6.37;;
15633;SDS011;14654;48.898;8.308;2022-09-25T04:37:07;8.47;;;7.77;;
15633;SDS011;14654;48.898;8.308;2022-09-25T04:39:34;8.53;;;7.83;;
15633;SDS011;14654;48.898;8.308;2022-09-25T04:41:59;8.43;;;7.63;;
15633;SDS011;14654;48.898;8.308;2022-09-25T04:44:25;8.00;;;7.30;;
15633;SDS011;14654;48.898;8.308;2022-09-25T04:46:50;7.43;;;6.83;;
15633;SDS011;14654;48.898;8.308;2022-09-25T04:49:16;8.10;;;7.50;;
15633;SDS011;14654;48.898;8.308;2022-09-25T04:51:41;7.77;;;7.17;;
15633;SDS011;14654;48.898;8.308;2022-09-25T04:54:07;8.20;;;7.50;;
15633;SDS011;14654;48.898;8.308;2022-09-25T04:56:32;7.63;;;7.03;;
15633;SDS011;14654;48.898;8.308;2022-09-25T04:58:57;7.30;;;6.80;;
15633;SDS011;14654;48.898;8.308;2022-09-25T05:01:23;6.73;;;6.23;;
15633;SDS011;14654;48.898;8.308;2022-09-25T05:03:48;7.23;;;6.73;;
15633;SDS011;14654;48.898;8.308;2022-09-25T05:06:17;7.93;;;7.33;;
15633;SDS011;14654;48.898;8.308;2022-09-25T05:08:43;8.70;;;8.00;;
15633;SDS011;14654;48.898;8.308;2022-09-25T05:11:08;8.23;;;7.63;;
15633;SDS011;14654;48.898;8.308;2022-09-25T05:13:33;8.10;;;7.40;;
15633;SDS011;14654;48.898;8.308;2022-09-25T05:15:59;8.00;;;7.30;;
15633;SDS011;14654;48.898;8.308;2022-09-25T05:18:24;8.77;;;8.00;;
15633;SDS011;14654;48.898;8.308;2022-09-25T05:20:50;8.70;;;8.00;;
15633;SDS011;14654;48.898;8.308;2022-09-25T05:23:17;9.00;;;8.30;;
15633;SDS011;14654;48.898;8.308;2022-09-25T05:25:49;9.40;;;8.60;;
15633;SDS011;14654;48.898;8.308;2022-09-25T05:28:16;9.80;;;9.00;;
15633;SDS011;14654;48.898;8.308;2022-09-25T05:30:41;9.10;;;8.40;;
15633;SDS011;14654;48.898;8.308;2022-09-25T05:33:07;9.03;;;8.33;;
15633;SDS011;14654;48.898;8.308;2022-09-25T05:35:32;9.70;;;8.90;;
15633;SDS011;14654;48.898;8.308;2022-09-25T05:37:58;9.30;;;8.60;;
15633;SDS011;14654;48.898;8.308;2022-09-25T05:40:24;9.07;;;8.37;;
15633;SDS011;14654;48.898;8.308;2022-09-25T05:42:50;8.67;;;7.97;;
15633;SDS011;14654;48.898;8.308;2022-09-25T05:45:16;9.10;;;8.40;;
15633;SDS011;14654;48.898;8.308;2022-09-25T05:47:43;9.10;;;8.40;;
15633;SDS011;14654;48.898;8.308;2022-09-25T05:50:09;8.83;;;8.13;;
15633;SDS011;14654;48.898;8.308;2022-09-25T05:52:37;8.83;;;8.03;;
15633;SDS011;14654;48.898;8.308;2022-09-25T05:55:02;9.53;;;8.73;;
15633;SDS011;14654;48.898;8.308;2022-09-25T05:57:30;8.87;;;8.17;;
15633;SDS011;14654;48.898;8.308;2022-09-25T05:59:59;9.10;;;8.40;;
15633;SDS011;14654;48.898;8.308;2022-09-25T06:02:25;8.87;;;8.20;;
15633;SDS011;14654;48.898;8.308;2022-09-25T06:04:51;8.77;;;8.07;;
15633;SDS011;14654;48.898;8.308;2022-09-25T06:07:16;9.70;;;8.90;;
15633;SDS011;14654;48.898;8.308;2022-09-25T06:09:42;8.80;;;8.03;;
15633;SDS011;14654;48.898;8.308;2022-09-25T06:12:07;8.97;;;8.27;;
15633;SDS011;14654;48.898;8.308;2022-09-25T06:14:32;9.47;;;8.67;;
15633;SDS011;14654;48.898;8.308;2022-09-25T06:17:01;9.30;;;8.50;;
15633;SDS011;14654;48.898;8.308;2022-09-25T06:19:27;9.13;;;8.23;;
15633;SDS011;14654;48.898;8.308;2022-09-25T06:21:53;9.23;;;8.53;;
15633;SDS011;14654;48.898;8.308;2022-09-25T06:24:20;9.73;;;8.83;;
15633;SDS011;14654;48.898;8.308;2022-09-25T06:26:45;9.93;;;9.13;;
15633;SDS011;14654;48.898;8.308;2022-09-25T06:29:11;9.47;;;8.60;;
15633;SDS011;14654;48.898;8.308;2022-09-25T06:31:36;9.90;;;9.13;;
15633;SDS011;14654;48.898;8.308;2022-09-25T06:34:03;9.70;;;8.90;;
15633;SDS011;14654;48.898;8.308;2022-09-25T06:36:29;9.27;;;8.57;;
15633;SDS011;14654;48.898;8.308;2022-09-25T06:38:55;9.53;;;8.73;;
15633;SDS011;14654;48.898;8.308;2022-09-25T06:41:21;9.33;;;8.53;;
15633;SDS011;14654;48.898;8.308;2022-09-25T06:43:47;9.43;;;8.73;;
15633;SDS011;14654;48.898;8.308;2022-09-25T06:46:14;9.33;;;8.53;;
15633;SDS011;14654;48.898;8.308;2022-09-25T06:48:39;11.20;;;10.30;;
15633;SDS011;14654;48.898;8.308;2022-09-25T06:51:05;10.07;;;9.27;;
15633;SDS011;14654;48.898;8.308;2022-09-25T06:53:32;9.87;;;9.07;;
15633;SDS011;14654;48.898;8.308;2022-09-25T06:55:58;9.63;;;8.83;;
15633;SDS011;14654;48.898;8.308;2022-09-25T06:58:24;10.50;;;9.67;;
15633;SDS011;14654;48.898;8.308;2022-09-25T07:00:51;10.60;;;9.80;;
15633;SDS011;14654;48.898;8.308;2022-09-25T07:03:18;10.50;;;9.70;;
15633;SDS011;14654;48.898;8.308;2022-09-25T07:06:03;10.20;;;9.43;;
15633;SDS011;14654;48.898;8.308;2022-09-25T07:08:30;10.93;;;10.03;;
15633;SDS011;14654;48.898;8.308;2022-09-25T07:10:56;11.70;;;10.70;;
15633;SDS011;14654;48.898;8.308;2022-09-25T07:13:23;12.00;;;11.00;;
15633;SDS011;14654;48.898;8.308;2022-09-25T07:18:28;11.80;;;10.87;;
15633;SDS011;14654;48.898;8.308;2022-09-25T07:21:01;13.57;;;12.37;;
15633;SDS011;14654;48.898;8.308;2022-09-25T07:23:32;12.63;;;11.53;;
15633;SDS011;14654;48.898;8.308;2022-09-25T07:28:46;14.40;;;13.20;;
15633;SDS011;14654;48.898;8.308;2022-09-25T07:31:14;13.50;;;12.40;;
15633;SDS011;14654;48.898;8.308;2022-09-25T07:33:44;13.80;;;12.60;;
15633;SDS011;14654;48.898;8.308;2022-09-25T07:36:10;18.17;;;16.57;;
15633;SDS011;14654;48.898;8.308;2022-09-25T07:38:36;19.27;;;17.47;;
15633;SDS011;14654;48.898;8.308;2022-09-25T07:41:05;18.23;;;16.63;;
15633;SDS011;14654;48.898;8.308;2022-09-25T07:43:32;17.90;;;16.30;;
15633;SDS011;14654;48.898;8.308;2022-09-25T07:45:58;18.30;;;16.67;;
15633;SDS011;14654;48.898;8.308;2022-09-25T07:48:25;17.30;;;15.83;;
15633;SDS011;14654;48.898;8.308;2022-09-25T07:50:51;16.97;;;15.57;;
15633;SDS011;14654;48.898;8.308;2022-09-25T07:53:17;18.90;;;17.20;;
15633;SDS011;14654;48.898;8.308;2022-09-25T07:55:43;16.57;;;15.17;;
15633;SDS011;14654;48.898;8.308;2022-09-25T07:58:11;15.77;;;14.47;;
15633;SDS011;14654;48.898;8.308;2022-09-25T08:00:37;15.60;;;14.30;;
15633;SDS011;14654;48.898;8.308;2022-09-25T08:03:04;15.47;;;14.17;;
15633;SDS011;14654;48.898;8.308;2022-09-25T08:05:30;15.40;;;14.20;;
15633;SDS011;14654;48.898;8.308;2022-09-25T08:07:55;15.57;;;14.17;;
15633;SDS011;14654;48.898;8.308;2022-09-25T08:10:21;14.77;;;13.53;;
15633;SDS011;14654;48.898;8.308;2022-09-25T08:12:47;14.40;;;13.20;;
15633;SDS011;14654;48.898;8.308;2022-09-25T08:15:12;14.43;;;13.20;;
15633;SDS011;14654;48.898;8.308;2022-09-25T08:17:39;14.33;;;13.13;;
15633;SDS011;14654;48.898;8.308;2022-09-25T08:20:05;14.00;;;12.87;;
15633;SDS011;14654;48.898;8.308;2022-09-25T08:22:31;13.47;;;12.37;;
15633;SDS011;14654;48.898;8.308;2022-09-25T08:24:57;12.53;;;11.53;;
15633;SDS011;14654;48.898;8.308;2022-09-25T08:27:24;12.60;;;11.50;;
15633;SDS011;14654;48.898;8.308;2022-09-25T08:29:49;13.63;;;12.57;;
15633;SDS011;14654;48.898;8.308;2022-09-25T08:32:15;14.43;;;13.17;;
15633;SDS011;14654;48.898;8.308;2022-09-25T08:34:40;13.10;;;12.00;;
15633;SDS011;14654;48.898;8.308;2022-09-25T08:37:06;13.03;;;11.93;;
15633;SDS011;14654;48.898;8.308;2022-09-25T08:39:32;13.00;;;11.90;;
15633;SDS011;14654;48.898;8.308;2022-09-25T08:41:58;12.77;;;11.67;;
15633;SDS011;14654;48.898;8.308;2022-09-25T08:44:46;12.83;;;11.73;;
15633;SDS011;14654;48.898;8.308;2022-09-25T08:52:38;16.20;;;14.70;;
15633;SDS011;14654;48.898;8.308;2022-09-25T08:55:16;15.43;;;14.03;;
15633;SDS011;14654;48.898;8.308;2022-09-25T08:57:48;13.50;;;12.40;;
15633;SDS011;14654;48.898;8.308;2022-09-25T09:00:19;13.77;;;12.60;;
15633;SDS011;14654;48.898;8.308;2022-09-25T09:02:52;13.80;;;12.50;;
15633;SDS011;14654;48.898;8.308;2022-09-25T09:05:29;14.40;;;13.10;;
15633;SDS011;14654;48.898;8.308;2022-09-25T09:08:03;14.07;;;12.77;;
15633;SDS011;14654;48.898;8.308;2022-09-25T09:10:39;14.27;;;12.97;;
15633;SDS011;14654;48.898;8.308;2022-09-25T09:16:08;14.70;;;13.40;;
15633;SDS011;14654;48.898;8.308;2022-09-25T09:18:37;13.23;;;12.13;;
15633;SDS011;14654;48.898;8.308;2022-09-25T09:26:46;12.13;;;11.13;;
15633;SDS011;14654;48.898;8.308;2022-09-25T09:29:23;12.53;;;11.53;;
15633;SDS011;14654;48.898;8.308;2022-09-25T09:31:56;13.77;;;12.57;;
15633;SDS011;14654;48.898;8.308;2022-09-25T09:46:04;9.83;;;9.03;;
15633;SDS011;14654;48.898;8.308;2022-09-25T09:51:27;10.03;;;9.23;;
15633;SDS011;14654;48.898;8.308;2022-09-25T09:54:16;10.53;;;9.63;;
15633;SDS011;14654;48.898;8.308;2022-09-25T09:56:48;9.77;;;8.87;;
15633;SDS011;14654;48.898;8.308;2022-09-25T09:59:19;10.40;;;9.40;;
15633;SDS011;14654;48.898;8.308;2022-09-25T10:01:51;9.70;;;8.80;;
15633;SDS011;14654;48.898;8.308;2022-09-25T10:04:24;9.53;;;8.73;;
15633;SDS011;14654;48.898;8.308;2022-09-25T10:06:54;9.87;;;8.97;;
15633;SDS011;14654;48.898;8.308;2022-09-25T10:09:26;9.83;;;9.03;;
15633;SDS011;14654;48.898;8.308;2022-09-25T10:12:34;11.07;;;10.07;;
15633;SDS011;14654;48.898;8.308;2022-09-25T10:14:44;10.33;;;9.43;;
15633;SDS011;14654;48.898;8.308;2022-09-25T10:17:10;10.07;;;9.27;;
15633;SDS011;14654;48.898;8.308;2022-09-25T10:22:38;9.60;;;8.73;;
15633;SDS011;14654;48.898;8.308;2022-09-25T10:25:06;9.83;;;9.03;;
15633;SDS011;14654;48.898;8.308;2022-09-25T10:35:28;9.90;;;9.00;;
15633;SDS011;14654;48.898;8.308;2022-09-25T10:38:04;11.10;;;10.10;;
15633;SDS011;14654;48.898;8.308;2022-09-25T10:40:40;12.63;;;11.53;;
15633;SDS011;14654;48.898;8.308;2022-09-25T10:45:35;11.40;;;10.40;;
15633;SDS011;14654;48.898;8.308;2022-09-25T10:51:10;13.33;;;12.23;;
15633;SDS011;14654;48.898;8.308;2022-09-25T10:53:36;13.67;;;12.53;;
15633;SDS011;14654;48.898;8.308;2022-09-25T10:56:06;14.63;;;13.23;;
15633;SDS011;14654;48.898;8.308;2022-09-25T10:58:40;13.33;;;12.23;;
15633;SDS011;14654;48.898;8.308;2022-09-25T11:01:21;12.10;;;11.17;;
15633;SDS011;14654;48.898;8.308;2022-09-25T11:03:56;12.80;;;11.70;;
15633;SDS011;14654;48.898;8.308;2022-09-25T11:06:23;12.20;;;11.20;;
15633;SDS011;14654;48.898;8.308;2022-09-25T11:11:42;11.73;;;10.50;;
15633;SDS011;14654;48.898;8.308;2022-09-25T11:14:29;11.93;;;10.90;;
15633;SDS011;14654;48.898;8.308;2022-09-25T11:17:00;12.50;;;11.40;;
15633;SDS011;14654;48.898;8.308;2022-09-25T11:19:30;14.50;;;13.10;;
15633;SDS011;14654;48.898;8.308;2022-09-25T11:27:47;13.37;;;12.17;;
15633;SDS011;14654;48.898;8.308;2022-09-25T11:30:17;13.17;;;11.90;;
15633;SDS011;14654;48.898;8.308;2022-09-25T11:33:02;15.30;;;14.00;;
15633;SDS011;14654;48.898;8.308;2022-09-25T11:41:29;14.87;;;13.47;;
15633;SDS011;14654;48.898;8.308;2022-09-25T11:49:35;15.27;;;13.87;;
15633;SDS011;14654;48.898;8.308;2022-09-25T12:03:27;19.03;;;17.23;;
15633;SDS011;14654;48.898;8.308;2022-09-25T12:25:33;16.33;;;14.47;;
15633;SDS011;14654;48.898;8.308;2022-09-25T12:33:19;14.80;;;13.40;;
15633;SDS011;14654;48.898;8.308;2022-09-25T12:35:57;14.83;;;13.53;;
15633;SDS011;14654;48.898;8.308;2022-09-25T12:38:44;14.57;;;13.17;;
15633;SDS011;14654;48.898;8.308;2022-09-25T12:41:29;16.83;;;15.23;;
15633;SDS011;14654;48.898;8.308;2022-09-25T12:46:38;15.33;;;13.83;;
15633;SDS011;14654;48.898;8.308;2022-09-25T12:49:24;16.03;;;14.53;;
15633;SDS011;14654;48.898;8.308;2022-09-25T12:51:53;16.53;;;15.03;;
15633;SDS011;14654;48.898;8.308;2022-09-25T12:54:29;16.70;;;15.00;;
15633;SDS011;14654;48.898;8.308;2022-09-25T12:56:59;16.23;;;14.63;;
15633;SDS011;14654;48.898;8.308;2022-09-25T12:59:35;17.07;;;15.47;;
15633;SDS011;14654;48.898;8.308;2022-09-25T13:09:51;16.63;;;15.00;;
15633;SDS011;14654;48.898;8.308;2022-09-25T13:15:04;14.20;;;12.90;;
15633;SDS011;14654;48.898;8.308;2022-09-25T13:17:35;15.73;;;14.13;;
15633;SDS011;14654;48.898;8.308;2022-09-25T13:25:49;12.13;;;10.83;;
15633;SDS011;14654;48.898;8.308;2022-09-25T13:28:24;9.20;;;8.40;;
15633;SDS011;14654;48.898;8.308;2022-09-25T13:31:11;9.20;;;8.40;;
15633;SDS011;14654;48.898;8.308;2022-09-25T13:33:52;7.97;;;7.20;;
15633;SDS011;14654;48.898;8.308;2022-09-25T13:38:49;6.30;;;5.80;;
15633;SDS011;14654;48.898;8.308;2022-09-25T13:41:35;6.00;;;5.50;;
15633;SDS011;14654;48.898;8.308;2022-09-25T13:49:49;6.10;;;5.60;;
15633;SDS011;14654;48.898;8.308;2022-09-25T13:52:49;5.87;;;5.37;;
15633;SDS011;14654;48.898;8.308;2022-09-25T13:55:40;5.43;;;5.03;;
15633;SDS011;14654;48.898;8.308;2022-09-25T13:58:21;5.50;;;5.07;;
15633;SDS011;14654;48.898;8.308;2022-09-25T14:05:57;5.70;;;5.20;;
15633;SDS011;14654;48.898;8.308;2022-09-25T14:08:23;5.07;;;4.70;;
15633;SDS011;14654;48.898;8.308;2022-09-25T14:10:52;4.73;;;4.33;;
15633;SDS011;14654;48.898;8.308;2022-09-25T14:13:19;5.00;;;4.60;;
15633;SDS011;14654;48.898;8.308;2022-09-25T14:15:47;5.47;;;5.00;;
15633;SDS011;14654;48.898;8.308;2022-09-25T14:18:16;4.90;;;4.50;;
15633;SDS011;14654;48.898;8.308;2022-09-25T14:20:46;5.10;;;4.70;;
15633;SDS011;14654;48.898;8.308;2022-09-25T14:25:40;6.70;;;6.13;;
15633;SDS011;14654;48.898;8.308;2022-09-25T14:28:18;7.10;;;6.50;;
15633;SDS011;14654;48.898;8.308;2022-09-25T14:38:58;6.17;;;5.67;;
15633;SDS011;14654;48.898;8.308;2022-09-25T14:47:06;6.87;;;6.27;;
15633;SDS011;14654;48.898;8.308;2022-09-25T14:49:38;6.90;;;6.30;;
15633;SDS011;14654;48.898;8.308;2022-09-25T14:52:09;7.87;;;7.17;;
15633;SDS011;14654;48.898;8.308;2022-09-25T14:54:40;7.57;;;6.90;;
15633;SDS011;14654;48.898;8.308;2022-09-25T14:57:09;8.30;;;7.67;;
15633;SDS011;14654;48.898;8.308;2022-09-25T15:02:20;10.23;;;9.43;;
15633;SDS011;14654;48.898;8.308;2022-09-25T15:04:49;10.10;;;9.20;;
15633;SDS011;14654;48.898;8.308;2022-09-25T15:07:21;9.87;;;9.07;;
15633;SDS011;14654;48.898;8.308;2022-09-25T15:09:48;11.00;;;9.93;;
15633;SDS011;14654;48.898;8.308;2022-09-25T15:17:42;10.67;;;9.77;;
15633;SDS011;14654;48.898;8.308;2022-09-25T15:20:12;12.27;;;11.17;;
15633;SDS011;14654;48.898;8.308;2022-09-25T15:22:41;12.53;;;11.53;;
15633;SDS011;14654;48.898;8.308;2022-09-25T15:25:12;12.13;;;11.13;;
15633;SDS011;14654;48.898;8.308;2022-09-25T15:27:45;10.73;;;9.73;;
15633;SDS011;14654;48.898;8.308;2022-09-25T15:30:14;9.13;;;8.23;;
15633;SDS011;14654;48.898;8.308;2022-09-25T15:32:41;8.20;;;7.50;;
15633;SDS011;14654;48.898;8.308;2022-09-25T15:37:47;7.80;;;7.13;;
15633;SDS011;14654;48.898;8.308;2022-09-25T15:42:44;7.30;;;6.70;;
15633;SDS011;14654;48.898;8.308;2022-09-25T15:50:45;6.17;;;5.67;;
15633;SDS011;14654;48.898;8.308;2022-09-25T15:53:23;6.00;;;5.50;;
15633;SDS011;14654;48.898;8.308;2022-09-25T15:56:03;6.27;;;5.70;;
15633;SDS011;14654;48.898;8.308;2022-09-25T15:58:29;5.83;;;5.37;;
15633;SDS011;14654;48.898;8.308;2022-09-25T16:00:57;6.60;;;6.10;;
15633;SDS011;14654;48.898;8.308;2022-09-25T16:03:50;6.90;;;6.30;;
15633;SDS011;14654;48.898;8.308;2022-09-25T16:06:36;7.13;;;6.53;;
15633;SDS011;14654;48.898;8.308;2022-09-25T16:11:51;6.20;;;5.70;;
15633;SDS011;14654;48.898;8.308;2022-09-25T16:14:21;5.90;;;5.40;;
15633;SDS011;14654;48.898;8.308;2022-09-25T16:16:53;4.87;;;4.47;;
15633;SDS011;14654;48.898;8.308;2022-09-25T16:19:20;5.83;;;5.03;;
15633;SDS011;14654;48.898;8.308;2022-09-25T16:21:54;5.40;;;4.90;;
15633;SDS011;14654;48.898;8.308;2022-09-25T16:24:24;5.00;;;4.50;;
15633;SDS011;14654;48.898;8.308;2022-09-25T16:26:53;5.07;;;4.60;;
15633;SDS011;14654;48.898;8.308;2022-09-25T16:29:22;5.90;;;5.40;;
15633;SDS011;14654;48.898;8.308;2022-09-25T16:31:50;5.83;;;5.33;;
15633;SDS011;14654;48.898;8.308;2022-09-25T16:34:22;6.63;;;6.03;;
15633;SDS011;14654;48.898;8.308;2022-09-25T16:36:52;5.30;;;4.77;;
15633;SDS011;14654;48.898;8.308;2022-09-25T16:39:24;6.63;;;4.97;;
15633;SDS011;14654;48.898;8.308;2022-09-25T16:41:52;5.57;;;5.07;;
15633;SDS011;14654;48.898;8.308;2022-09-25T16:47:05;5.77;;;4.40;;
15633;SDS011;14654;48.898;8.308;2022-09-25T16:49:36;4.70;;;4.30;;
15633;SDS011;14654;48.898;8.308;2022-09-25T16:52:03;5.00;;;4.60;;
15633;SDS011;14654;48.898;8.308;2022-09-25T16:54:30;4.50;;;4.20;;
15633;SDS011;14654;48.898;8.308;2022-09-25T16:56:57;4.93;;;4.53;;
15633;SDS011;14654;48.898;8.308;2022-09-25T16:59:24;5.70;;;5.10;;
15633;SDS011;14654;48.898;8.308;2022-09-25T17:01:52;5.00;;;4.50;;
15633;SDS011;14654;48.898;8.308;2022-09-25T17:04:21;5.00;;;4.43;;
15633;SDS011;14654;48.898;8.308;2022-09-25T17:06:49;4.77;;;4.27;;
15633;SDS011;14654;48.898;8.308;2022-09-25T17:09:16;5.67;;;4.30;;
15633;SDS011;14654;48.898;8.308;2022-09-25T17:11:43;4.70;;;4.33;;
15633;SDS011;14654;48.898;8.308;2022-09-25T17:14:20;4.53;;;4.13;;
15633;SDS011;14654;48.898;8.308;2022-09-25T17:16:47;4.83;;;4.10;;
15633;SDS011;14654;48.898;8.308;2022-09-25T17:19:13;4.53;;;4.13;;
15633;SDS011;14654;48.898;8.308;2022-09-25T17:21:46;4.37;;;3.97;;
15633;SDS011;14654;48.898;8.308;2022-09-25T17:24:15;4.77;;;4.37;;
15633;SDS011;14654;48.898;8.308;2022-09-25T17:26:42;4.83;;;4.43;;
15633;SDS011;14654;48.898;8.308;2022-09-25T17:29:08;4.90;;;4.50;;
15633;SDS011;14654;48.898;8.308;2022-09-25T17:31:33;4.57;;;4.17;;
15633;SDS011;14654;48.898;8.308;2022-09-25T17:33:59;4.57;;;4.17;;
15633;SDS011;14654;48.898;8.308;2022-09-25T17:36:24;4.83;;;4.40;;
15633;SDS011;14654;48.898;8.308;2022-09-25T17:38:50;4.97;;;4.63;;
15633;SDS011;14654;48.898;8.308;2022-09-25T17:41:20;4.77;;;4.37;;
15633;SDS011;14654;48.898;8.308;2022-09-25T17:43:55;5.13;;;4.63;;
15633;SDS011;14654;48.898;8.308;2022-09-25T17:46:20;5.20;;;4.80;;
15633;SDS011;14654;48.898;8.308;2022-09-25T17:48:45;5.07;;;4.57;;
15633;SDS011;14654;48.898;8.308;2022-09-25T17:51:15;4.67;;;4.27;;
15633;SDS011;14654;48.898;8.308;2022-09-25T17:53:42;4.93;;;4.53;;
15633;SDS011;14654;48.898;8.308;2022-09-25T17:56:08;5.27;;;4.80;;
15633;SDS011;14654;48.898;8.308;2022-09-25T17:58:34;4.73;;;4.33;;
15633;SDS011;14654;48.898;8.308;2022-09-25T18:01:00;5.43;;;4.93;;
15633;SDS011;14654;48.898;8.308;2022-09-25T18:03:26;5.13;;;4.73;;
15633;SDS011;14654;48.898;8.308;2022-09-25T18:05:54;5.10;;;4.70;;
15633;SDS011;14654;48.898;8.308;2022-09-25T18:08:19;5.37;;;4.87;;
15633;SDS011;14654;48.898;8.308;2022-09-25T18:10:45;5.50;;;5.00;;
15633;SDS011;14654;48.898;8.308;2022-09-25T18:13:12;5.20;;;4.80;;
15633;SDS011;14654;48.898;8.308;2022-09-25T18:15:44;5.23;;;4.83;;
15633;SDS011;14654;48.898;8.308;2022-09-25T18:18:12;5.03;;;4.53;;
15633;SDS011;14654;48.898;8.308;2022-09-25T18:20:37;5.63;;;5.23;;
15633;SDS011;14654;48.898;8.308;2022-09-25T18:23:21;5.70;;;5.20;;
15633;SDS011;14654;48.898;8.308;2022-09-25T18:25:46;5.67;;;5.17;;
15633;SDS011;14654;48.898;8.308;2022-09-25T18:28:12;5.63;;;5.20;;